createdAt,value
2023-05-09T08:05:28.267Z,19.00
2023-05-09T08:10:24.868Z,19.00
2023-05-09T09:47:42.664Z,20.60
2023-05-09T09:50:14.402Z,20.70
2023-05-09T09:52:52.849Z,20.80
2023-05-09T09:55:20.689Z,20.70
2023-05-09T09:57:48.307Z,20.80
2023-05-09T10:00:19.428Z,20.80
2023-05-09T10:02:59.507Z,20.80
2023-05-09T10:05:31.252Z,20.90
2023-05-09T10:08:02.482Z,20.90
2023-05-09T10:10:30.229Z,20.90
2023-05-09T10:12:59.305Z,21.00
2023-05-09T10:15:35.657Z,21.10
2023-05-09T10:18:14.556Z,21.00
2023-05-09T10:20:43.525Z,21.70
2023-05-09T10:23:12.020Z,21.30
2023-05-09T10:25:44.512Z,21.40
2023-05-09T10:28:15.179Z,21.30
2023-05-09T10:31:09.664Z,21.20
2023-05-09T10:33:48.107Z,21.20
2023-05-09T10:36:23.960Z,21.10
2023-05-09T10:38:56.341Z,21.20
2023-05-09T10:41:23.966Z,21.10
2023-05-09T10:43:51.121Z,21.00
2023-05-09T10:46:23.276Z,21.10
2023-05-09T10:48:52.628Z,21.00
2023-05-09T10:51:19.415Z,21.00
2023-05-09T10:53:48.730Z,21.10
2023-05-09T10:56:35.555Z,21.50
2023-05-09T10:59:05.081Z,21.60
2023-05-09T11:01:37.263Z,21.90
2023-05-09T11:04:12.905Z,21.90
2023-05-09T11:06:52.496Z,21.90
2023-05-09T11:09:38.251Z,22.00
2023-05-09T11:12:05.062Z,21.90
2023-05-09T11:14:35.683Z,22.00
2023-05-09T11:17:04.361Z,21.80
2023-05-09T11:19:58.889Z,21.90
2023-05-09T11:22:32.248Z,21.90
2023-05-09T11:25:10.191Z,21.80
2023-05-09T11:27:44.122Z,21.70
2023-05-09T11:30:14.555Z,21.70
2023-05-09T11:32:52.606Z,21.70
2023-05-09T11:35:21.518Z,21.70
2023-05-09T11:38:04.331Z,21.70
2023-05-09T11:40:32.388Z,21.70
2023-05-09T11:43:00.578Z,21.70
2023-05-09T11:45:30.383Z,21.80
2023-05-09T11:48:01.014Z,21.80
2023-05-09T11:50:28.330Z,22.00
2023-05-09T11:52:55.051Z,22.20
2023-05-09T19:05:10.837Z,16.60
2023-05-09T19:07:38.743Z,16.80
2023-05-09T19:10:08.451Z,16.60
2023-05-09T19:12:37.657Z,16.70
2023-05-09T19:15:07.398Z,16.50
2023-05-09T19:17:34.124Z,16.70
2023-05-09T19:20:02.459Z,16.50
2023-05-09T19:22:29.297Z,16.70
2023-05-09T19:24:59.257Z,16.50
2023-05-09T19:27:26.306Z,16.50
2023-05-09T19:29:53.305Z,16.50
2023-05-09T19:32:20.241Z,16.60
2023-05-09T19:34:47.340Z,16.50
2023-05-09T19:37:14.129Z,16.70
2023-05-09T19:39:43.522Z,16.70
2023-05-09T19:42:14.343Z,16.60
2023-05-09T21:01:04.232Z,16.00
